Aérodrome :
LOGIN :

S'inscrire | Disclaimer

   EN    FR    IT 

 










Légende :    VFR   VFR Marginal   IFR   IFR Intensif   IFR Très Intensif
Visi : 
Plafond : 
>= 8 km
>= 3000ft
5 à 8 km
1000 à 3000 ft
1500m à 5 km
500 à 1000 ft
800 à 1500m
200 à 500 ft
< 800m
< 200 ft
Symboles :   Orages  Brouillard  Fortes neiges  Fortes précipitations  Vent > 20 kt
SIGMETs :   Divers  Orages  Givrage  Turbulence  Onde Orograph.  Cendres Volcan.






- Altitude de l'aérodrome : 33 ft
- Code IATA : MHZ


EGUN - RAF Mildenhall

DERNIER METAR :
  • 251056Z 21010KT 9999 OVC022 06/03 A3010 RMK SLPNO WND DATA ESTMD ALSTG ESTMD RVRNO .

METARs EXPIRÉS :
  • 250956Z 20006KT 9999 OVC021 06/03 A3010 RMK SLPNO WND DATA ESTMD ALSTG ESTMD RVRNO $

TAF TAF EGUN
Valide du 25 à 04h jusqu'au 26 à 10h UTC


250359Z 2504/2610 22006KT 9999 OVC015 QNH3007INS
TEMPO 2504/2510 OVC020
BECMG 2509/2510 20012KT 9999 OVC020 QNH2999INS
TEMPO 2515/2520 OVC010
BECMG 2519/2520 18012KT 9999 OVC010 QNH2978INS TX07/2603Z TN06/2504Z



MET'MAP, la Météo Aéronautique d'un coup d'oeil ! - Copyright ORBIFLY Décembre 2007 - Disclaimer

ORBIFLY MET'MAP TEAM :

Programmation & Développement : Alexandra Zaïnal
Sur une idée originale de : Baudouin d'Aumeries
Assistance à la programmation : Marc-Olivier Méhu
Soutien technique & logistique : Manuel Goepfert

Contact : metmap@orbifly.com




SOURCES & CREDITS :

   NOAA